Time;durP1;ratioP1;P1;durP2;ratioP2;P2;SDS_P1;SDS_P2;PMS_P1;PMS_P2;Temp;Humidity;BMP_temperature;BMP_pressure;BME280_temperature;BME280_humidity;BME280_pressure;Samples;Min_cycle;Max_cycle;Signal;HPM_P1;HPM_P2
2022/04/09 00:02:11;;;;;;;2.28;0.50;;;;;;;;;;6318004;28;20068;-83
2022/04/09 00:05:15;;;;;;;1.30;0.80;;;;;;;;;;6317542;28;20060;-85
2022/04/09 00:08:19;;;;;;;1.15;0.75;;;;;;;;;;6318853;28;20042;-84
2022/04/09 00:11:23;;;;;;;3.22;0.80;;;;;;;;;;6318673;28;20040;-84
2022/04/09 00:14:26;;;;;;;1.05;0.70;;;;;;;;;;6318863;28;20044;-83
2022/04/09 00:17:29;;;;;;;2.75;0.77;;;;;;;;;;6300690;28;20044;-83
2022/04/09 00:20:32;;;;;;;1.50;1.08;;;;;;;;;;6316671;28;20478;-83
2022/04/09 00:23:42;;;;;;;1.00;0.52;;;;;;;;;;6319212;28;20115;-83
2022/04/09 00:26:46;;;;;;;;;;;;;;;;;;6317709;28;20040;-83
2022/04/09 00:29:49;;;;;;;1.85;0.60;;;;;;;;;;6316561;28;19920;-84
2022/04/09 00:32:53;;;;;;;2.30;1.00;;;;;;;;;;6317031;28;20066;-84
2022/04/09 00:35:56;;;;;;;2.92;0.80;;;;;;;;;;6316760;28;20048;-83
2022/04/09 00:39:01;;;;;;;2.53;1.48;;;;;;;;;;6317751;28;20100;-84
2022/04/09 00:42:05;;;;;;;2.37;1.23;;;;;;;;;;6316509;28;20494;-85
2022/04/09 00:45:08;;;;;;;3.33;0.93;;;;;;;;;;6316872;28;20432;-85
2022/04/09 00:48:12;;;;;;;2.60;1.17;;;;;;;;;;6316816;28;20501;-86
2022/04/09 00:51:15;;;;;;;1.63;0.90;;;;;;;;;;6315729;28;20410;-84
2022/04/09 00:54:20;;;;;;;2.00;1.02;;;;;;;;;;6318235;28;20102;-88
2022/04/09 00:57:25;;;;;;;1.90;0.80;;;;;;;;;;6316547;28;20063;-87
2022/04/09 01:00:28;;;;;;;1.70;0.88;;;;;;;;;;6316282;28;20406;-86
2022/04/09 01:03:34;;;;;;;6.47;1.23;;;;;;;;;;6316579;28;20510;-86
2022/04/09 01:06:38;;;;;;;3.22;1.27;;;;;;;;;;6316459;28;20043;-81
2022/04/09 01:09:44;;;;;;;4.25;1.40;;;;;;;;;;6316173;28;20044;-83
2022/04/09 01:12:48;;;;;;;3.90;1.20;;;;;;;;;;6315477;28;20048;-83
2022/04/09 01:15:51;;;;;;;1.45;1.20;;;;;;;;;;6316473;28;20044;-86
2022/04/09 01:18:55;;;;;;;1.20;1.10;;;;;;;;;;6317364;28;20063;-90
2022/04/09 01:22:00;;;;;;;2.67;1.13;;;;;;;;;;6315705;28;20044;-89
2022/04/09 01:25:06;;;;;;;1.75;1.17;;;;;;;;;;6315928;28;20060;-88
2022/04/09 01:28:10;;;;;;;3.90;1.30;;;;;;;;;;6316138;28;20043;-90
2022/04/09 01:31:13;;;;;;;1.55;1.10;;;;;;;;;;6317586;28;20044;-87
2022/04/09 01:34:16;;;;;;;4.25;1.58;;;;;;;;;;6315436;28;20109;-87
2022/04/09 01:37:23;;;;;;;2.80;1.23;;;;;;;;;;6316489;28;20510;-88
2022/04/09 01:40:27;;;;;;;3.28;1.25;;;;;;;;;;6315758;28;20494;-89
2022/04/09 01:43:31;;;;;;;2.47;1.45;;;;;;;;;;6298578;28;20040;-88
2022/04/09 01:46:34;;;;;;;5.15;1.40;;;;;;;;;;6315935;28;20516;-87
2022/04/09 01:49:37;;;;;;;2.35;1.40;;;;;;;;;;6315688;28;20063;-87
2022/04/09 01:52:44;;;;;;;3.30;1.33;;;;;;;;;;6318536;28;20089;-88
2022/04/09 01:55:51;;;;;;;13.45;1.70;;;;;;;;;;6320411;28;20044;-91
2022/04/09 01:58:57;;;;;;;3.97;1.60;;;;;;;;;;6321670;28;20101;-89
2022/04/09 02:02:02;;;;;;;3.38;1.58;;;;;;;;;;6320515;28;20075;-82
2022/04/09 02:05:06;;;;;;;4.57;1.40;;;;;;;;;;6319971;28;20162;-83
2022/04/09 02:08:11;;;;;;;3.33;1.27;;;;;;;;;;6320617;28;20032;-83
2022/04/09 02:11:15;;;;;;;3.50;1.58;;;;;;;;;;6320359;28;20064;-85
2022/04/09 02:14:18;;;;;;;1.70;1.33;;;;;;;;;;6302507;28;20048;-84
2022/04/09 02:17:22;;;;;;;6.07;1.35;;;;;;;;;;6302646;28;20544;-85
2022/04/09 02:20:25;;;;;;;3.45;1.23;;;;;;;;;;6320782;28;20051;-85
2022/04/09 02:23:32;;;;;;;2.50;1.20;;;;;;;;;;6303611;28;20387;-85
2022/04/09 02:26:36;;;;;;;4.13;1.60;;;;;;;;;;6319747;28;20077;-85
2022/04/09 02:29:42;;;;;;;3.88;2.03;;;;;;;;;;6320443;28;20047;-85
2022/04/09 02:32:48;;;;;;;9.02;1.80;;;;;;;;;;6319676;28;20044;-84
2022/04/09 02:35:54;;;;;;;14.07;1.52;;;;;;;;;;6319511;28;20483;-83
2022/04/09 02:38:59;;;;;;;7.75;2.08;;;;;;;;;;6319320;28;20105;-82
2022/04/09 02:42:03;;;;;;;9.70;1.83;;;;;;;;;;6319780;28;20039;-82
2022/04/09 02:45:09;;;;;;;9.70;1.98;;;;;;;;;;6319429;28;20588;-82
2022/04/09 02:48:14;;;;;;;11.07;2.47;;;;;;;;;;6319014;28;20051;-81
2022/04/09 02:51:19;;;;;;;;;;;;;;;;;;6318709;28;20527;-81
2022/04/09 02:54:24;;;;;;;12.57;2.60;;;;;;;;;;6317603;28;20409;-83
2022/04/09 02:57:28;;;;;;;8.82;2.35;;;;;;;;;;6317489;28;20059;-83
2022/04/09 03:00:31;;;;;;;6.53;2.35;;;;;;;;;;6317870;28;20044;-83
2022/04/09 03:03:38;;;;;;;5.22;2.65;;;;;;;;;;6318025;28;20055;-83
2022/04/09 03:06:42;;;;;;;8.98;2.22;;;;;;;;;;6317794;28;20063;-82
2022/04/09 03:09:46;;;;;;;7.47;1.80;;;;;;;;;;6316983;28;20113;-83
2022/04/09 03:12:49;;;;;;;6.38;2.20;;;;;;;;;;6319141;28;20067;-82
2022/04/09 03:15:53;;;;;;;6.53;2.05;;;;;;;;;;6318671;28;20414;-82
2022/04/09 03:18:56;;;;;;;7.78;2.70;;;;;;;;;;6316871;28;20044;-81
2022/04/09 03:22:01;;;;;;;4.05;1.60;;;;;;;;;;6317657;28;20490;-81
2022/04/09 03:25:08;;;;;;;5.70;1.70;;;;;;;;;;6317519;28;20394;-83
2022/04/09 03:28:11;;;;;;;5.30;1.73;;;;;;;;;;6317086;28;20040;-81
2022/04/09 03:31:17;;;;;;;11.18;2.05;;;;;;;;;;6316474;28;20505;-81
2022/04/09 03:34:22;;;;;;;6.20;1.55;;;;;;;;;;6317626;28;20048;-80
2022/04/09 03:37:25;;;;;;;4.22;1.35;;;;;;;;;;6316912;28;20044;-81
2022/04/09 03:40:30;;;;;;;9.63;1.98;;;;;;;;;;6316566;28;20055;-80
2022/04/09 03:43:36;;;;;;;4.07;1.60;;;;;;;;;;6316926;28;20521;-80
2022/04/09 03:46:39;;;;;;;1.73;1.33;;;;;;;;;;6317072;28;20048;-80
2022/04/09 03:49:47;;;;;;;5.65;1.20;;;;;;;;;;6279412;28;1074449;-80
2022/04/09 03:52:52;;;;;;;5.55;1.13;;;;;;;;;;6317382;28;20048;-80
2022/04/09 03:56:02;;;;;;;4.72;1.23;;;;;;;;;;6318366;28;20498;-80
2022/04/09 03:59:09;;;;;;;2.05;1.02;;;;;;;;;;6317805;28;20417;-80
2022/04/09 04:02:13;;;;;;;3.20;1.00;;;;;;;;;;6317074;28;20165;-80
2022/04/09 04:05:18;;;;;;;5.68;1.40;;;;;;;;;;6317655;28;20044;-80
2022/04/09 04:08:21;;;;;;;3.33;1.38;;;;;;;;;;6317730;28;20402;-80
2022/04/09 04:11:27;;;;;;;2.95;1.30;;;;;;;;;;6317436;28;20375;-80
2022/04/09 04:14:31;;;;;;;;;;;;;;;;;;6316645;28;20551;-80
2022/04/09 04:17:41;;;;;;;5.75;1.70;;;;;;;;;;6317937;28;19920;-80
2022/04/09 04:20:45;;;;;;;7.93;2.85;;;;;;;;;;6317137;28;20047;-79
2022/04/09 04:23:51;;;;;;;11.57;1.80;;;;;;;;;;6316622;28;20409;-79
2022/04/09 04:26:59;;;;;;;10.45;1.70;;;;;;;;;;6317125;28;20048;-78
2022/04/09 04:30:04;;;;;;;5.53;1.83;;;;;;;;;;6317327;28;20048;-78
2022/04/09 04:33:10;;;;;;;5.07;1.67;;;;;;;;;;6316955;28;20141;-78
2022/04/09 04:36:27;;;;;;;6.20;1.90;;;;;;;;;;6316341;28;20057;-82
2022/04/09 04:39:30;;;;;;;10.63;1.70;;;;;;;;;;6317054;28;20059;-79
2022/04/09 04:42:35;;;;;;;5.68;1.95;;;;;;;;;;6316723;28;20044;-79
2022/04/09 04:45:39;;;;;;;4.13;1.85;;;;;;;;;;6316351;28;20044;-79
2022/04/09 04:48:46;;;;;;;4.43;1.90;;;;;;;;;;6316183;28;20495;-79
2022/04/09 04:51:51;;;;;;;7.75;2.53;;;;;;;;;;6317012;28;20433;-82
2022/04/09 04:54:55;;;;;;;4.10;2.40;;;;;;;;;;6316435;28;20130;-81
2022/04/09 04:58:00;;;;;;;3.45;2.60;;;;;;;;;;6317041;28;20115;-82
2022/04/09 05:01:16;;;;;;;3.72;2.60;;;;;;;;;;6316768;28;20044;-82
2022/04/09 05:04:25;;;;;;;5.43;2.38;;;;;;;;;;6316362;28;20136;-81
2022/04/09 05:07:41;;;;;;;3.70;2.08;;;;;;;;;;6316226;28;20474;-82
2022/04/09 05:10:45;;;;;;;4.95;2.60;;;;;;;;;;6315589;28;20133;-81
2022/04/09 05:13:52;;;;;;;3.58;2.20;;;;;;;;;;6316357;28;20052;-81
2022/04/09 05:16:59;;;;;;;4.15;2.40;;;;;;;;;;6315654;28;20087;-81
2022/04/09 05:20:07;;;;;;;2.35;1.85;;;;;;;;;;6315230;28;20048;-83
2022/04/09 05:23:10;;;;;;;3.10;2.60;;;;;;;;;;6315833;28;20418;-83
2022/04/09 05:26:14;;;;;;;9.95;2.80;;;;;;;;;;6315908;28;20044;-82
2022/04/09 05:29:21;;;;;;;8.07;3.00;;;;;;;;;;6315758;28;20062;-83
2022/04/09 05:32:25;;;;;;;5.70;3.03;;;;;;;;;;6315227;28;20342;-83
2022/04/09 05:35:29;;;;;;;2.85;2.13;;;;;;;;;;6315921;28;20123;-85
2022/04/09 05:38:34;;;;;;;3.90;2.70;;;;;;;;;;6315787;28;20047;-86
2022/04/09 05:41:41;;;;;;;4.38;3.05;;;;;;;;;;6315073;28;20051;-86
2022/04/09 05:44:47;;;;;;;3.28;1.80;;;;;;;;;;6316223;28;20047;-85
2022/04/09 05:47:50;;;;;;;2.05;1.80;;;;;;;;;;6315698;28;20048;-84
2022/04/09 05:51:00;;;;;;;5.20;1.70;;;;;;;;;;6315128;28;20052;-82
2022/04/09 05:54:08;;;;;;;3.03;1.35;;;;;;;;;;6314193;28;20048;-83
2022/04/09 05:57:15;;;;;;;4.13;1.55;;;;;;;;;;6314765;28;20048;-79
2022/04/09 06:00:19;;;;;;;2.45;1.70;;;;;;;;;;6296906;28;20040;-80
2022/04/09 06:03:38;;;;;;;2.83;1.48;;;;;;;;;;6313807;28;20051;-80
2022/04/09 06:06:42;;;;;;;3.70;1.77;;;;;;;;;;6315401;28;20048;-81
2022/04/09 06:09:50;;;;;;;2.80;1.60;;;;;;;;;;6315086;28;20052;-81
2022/04/09 06:12:54;;;;;;;3.28;1.80;;;;;;;;;;6314806;28;20052;-82
2022/04/09 06:16:08;;;;;;;5.88;2.40;;;;;;;;;;6314165;28;20048;-82
2022/04/09 06:19:15;;;;;;;3.40;1.98;;;;;;;;;;6314962;28;20101;-80
2022/04/09 06:22:20;;;;;;;3.17;1.97;;;;;;;;;;6314334;28;20067;-80
2022/04/09 06:25:24;;;;;;;2.95;1.80;;;;;;;;;;6315994;28;20654;-80
2022/04/09 06:28:28;;;;;;;3.13;1.80;;;;;;;;;;6315640;28;20105;-80
2022/04/09 06:31:34;;;;;;;2.72;1.85;;;;;;;;;;6314812;28;20130;-80
2022/04/09 06:34:37;;;;;;;3.50;1.75;;;;;;;;;;6313745;28;20051;-80
2022/04/09 06:37:45;;;;;;;2.67;1.90;;;;;;;;;;6315765;28;20036;-80
2022/04/09 06:40:51;;;;;;;3.30;1.58;;;;;;;;;;6303479;28;20414;-87
2022/04/09 06:44:01;;;;;;;2.50;1.70;;;;;;;;;;6319226;28;20048;-85
2022/04/09 06:47:12;;;;;;;4.88;1.55;;;;;;;;;;6301764;28;20052;-80
2022/04/09 06:50:21;;;;;;;3.45;1.50;;;;;;;;;;6318243;28;20229;-81
2022/04/09 06:53:35;;;;;;;;;;;;;;;;;;;;;
2022/04/09 06:56:44;;;;;;;6.50;1.50;;;;;;;;;;6318301;28;20047;-82
2022/04/09 06:59:48;;;;;;;1.70;1.30;;;;;;;;;;6319023;28;20048;-82
2022/04/09 07:02:53;;;;;;;2.88;1.58;;;;;;;;;;6317824;28;20391;-83
2022/04/09 07:05:59;;;;;;;2.10;1.30;;;;;;;;;;6317711;28;20044;-83
2022/04/09 07:09:02;;;;;;;3.47;1.40;;;;;;;;;;6318687;28;20044;-83
2022/04/09 07:12:07;;;;;;;2.50;1.60;;;;;;;;;;6331939;28;20043;-81
2022/04/09 07:15:10;;;;;;;2.08;1.58;;;;;;;;;;6334626;28;20036;-84
2022/04/09 07:18:15;;;;;;;18.73;2.03;;;;;;;;;;6318696;28;20040;-82
2022/04/09 07:21:18;;;;;;;7.47;1.98;;;;;;;;;;6319383;28;20054;-84
2022/04/09 07:24:21;;;;;;;11.35;2.10;;;;;;;;;;6320156;28;20052;-84
2022/04/09 07:27:34;;;;;;;3.78;1.45;;;;;;;;;;6323063;28;20069;-86
2022/04/09 07:30:38;;;;;;;3.90;0.80;;;;;;;;;;6319552;28;20051;-85
2022/04/09 07:33:43;;;;;;;8.18;1.02;;;;;;;;;;6320192;28;20051;-82
2022/04/09 07:36:46;;;;;;;5.43;0.97;;;;;;;;;;6318226;28;20105;-87
2022/04/09 07:39:52;;;;;;;;;;;;;;;;;;6318495;28;20055;-80
2022/04/09 07:42:56;;;;;;;20.35;9.30;;;;;;;;;;6318277;28;19920;-82
2022/04/09 07:45:59;;;;;;;2.83;0.70;;;;;;;;;;6319433;28;20052;-80
2022/04/09 07:49:04;;;;;;;3.25;0.60;;;;;;;;;;6318272;28;20044;-81
2022/04/09 07:52:07;;;;;;;10.48;1.77;;;;;;;;;;6319035;28;20110;-82
2022/04/09 07:55:16;;;;;;;5.72;0.95;;;;;;;;;;6318586;28;20040;-83
2022/04/09 07:58:19;;;;;;;4.85;0.90;;;;;;;;;;6318937;28;20044;-82
2022/04/09 08:01:22;;;;;;;5.20;1.80;;;;;;;;;;6316619;28;20044;-82
2022/04/09 08:04:27;;;;;;;2.17;0.95;;;;;;;;;;6317908;28;20558;-82
2022/04/09 08:07:31;;;;;;;1.80;0.60;;;;;;;;;;6317094;28;20052;-81
2022/04/09 08:10:34;;;;;;;2.15;0.70;;;;;;;;;;6316630;28;20516;-80
2022/04/09 08:13:37;;;;;;;2.15;0.63;;;;;;;;;;6316327;28;20514;-80
2022/04/09 08:16:40;;;;;;;1.13;0.50;;;;;;;;;;6319083;28;20197;-80
2022/04/09 08:19:45;;;;;;;1.90;1.10;;;;;;;;;;6318798;28;20446;-81
2022/04/09 08:22:50;;;;;;;1.20;0.80;;;;;;;;;;6316288;28;20048;-84
2022/04/09 08:25:55;;;;;;;0.90;0.60;;;;;;;;;;6318441;28;20047;-83
2022/04/09 08:28:58;;;;;;;0.82;0.65;;;;;;;;;;6316474;28;20040;-85
2022/04/09 08:32:01;;;;;;;1.00;0.70;;;;;;;;;;6317560;28;20479;-83
2022/04/09 08:35:07;;;;;;;12.27;0.80;;;;;;;;;;6315929;28;20567;-89
2022/04/09 08:38:15;;;;;;;1.15;0.70;;;;;;;;;;6316436;28;20044;-83
2022/04/09 08:41:20;;;;;;;13.55;8.45;;;;;;;;;;6316123;28;20048;-81
2022/04/09 08:44:23;;;;;;;2.55;1.38;;;;;;;;;;6316131;28;20097;-81
2022/04/09 08:47:28;;;;;;;1.85;1.00;;;;;;;;;;6317371;28;20044;-87
2022/04/09 08:50:35;;;;;;;1.92;1.20;;;;;;;;;;6316950;28;20498;-86
2022/04/09 08:53:40;;;;;;;1.60;0.90;;;;;;;;;;6315774;28;20474;-81
2022/04/09 08:56:44;;;;;;;2.08;1.10;;;;;;;;;;6315352;28;20048;-84
2022/04/09 08:59:47;;;;;;;2.42;1.25;;;;;;;;;;6316332;28;20046;-85
2022/04/09 09:02:52;;;;;;;1.10;1.00;;;;;;;;;;6315198;28;20051;-83
2022/04/09 09:05:57;;;;;;;3.33;1.33;;;;;;;;;;6315548;28;20126;-82
2022/04/09 09:09:05;;;;;;;3.75;1.40;;;;;;;;;;6315070;28;20542;-83
2022/04/09 09:12:10;;;;;;;1.98;1.35;;;;;;;;;;6314890;28;20109;-80
2022/04/09 09:15:13;;;;;;;5.07;1.70;;;;;;;;;;6313115;28;20044;-80
2022/04/09 09:18:20;;;;;;;2.42;1.67;;;;;;;;;;6315338;28;20055;-82
2022/04/09 09:21:27;;;;;;;2.55;1.40;;;;;;;;;;6314091;28;20520;-82
2022/04/09 09:24:31;;;;;;;2.17;1.60;;;;;;;;;;6315108;28;20055;-83
2022/04/09 09:27:34;;;;;;;3.17;1.60;;;;;;;;;;6315407;28;20047;-82
2022/04/09 09:30:47;;;;;;;4.30;1.92;;;;;;;;;;6315475;28;20071;-83
2022/04/09 09:33:51;;;;;;;2.17;1.80;;;;;;;;;;6314421;28;20118;-81
2022/04/09 09:37:20;;;;;;;2.15;1.70;;;;;;;;;;6313571;28;20509;-91
2022/04/09 09:40:36;;;;;;;1.95;1.50;;;;;;;;;;6315629;28;20055;-87
2022/04/09 09:43:40;;;;;;;2.50;1.53;;;;;;;;;;6316515;28;20040;-82
2022/04/09 09:46:47;;;;;;;8.82;4.88;;;;;;;;;;6314851;28;20097;-83
2022/04/09 09:49:55;;;;;;;1.65;1.52;;;;;;;;;;6313178;28;20244;-83
2022/04/09 09:53:05;;;;;;;2.45;1.63;;;;;;;;;;6316144;28;20075;-81
2022/04/09 09:56:11;;;;;;;1.70;1.60;;;;;;;;;;6313469;28;20054;-82
2022/04/09 09:59:15;;;;;;;1.60;1.50;;;;;;;;;;6314785;28;20040;-82
2022/04/09 10:02:21;;;;;;;1.98;1.80;;;;;;;;;;6315344;28;20044;-82
2022/04/09 10:05:28;;;;;;;2.33;2.13;;;;;;;;;;6298816;28;20063;-81
2022/04/09 10:08:33;;;;;;;2.07;1.80;;;;;;;;;;6316528;28;20071;-83
2022/04/09 10:11:39;;;;;;;1.95;1.63;;;;;;;;;;6313018;28;20055;-83
2022/04/09 10:14:45;;;;;;;2.33;1.70;;;;;;;;;;6317352;28;20052;-83
2022/04/09 10:17:52;;;;;;;1.33;1.33;;;;;;;;;;6317847;28;20051;-85
2022/04/09 10:20:59;;;;;;;1.80;1.70;;;;;;;;;;6317243;28;20508;-88
2022/04/09 10:24:06;;;;;;;2.47;1.90;;;;;;;;;;6317594;28;20530;-88
2022/04/09 10:27:30;;;;;;;1.70;1.60;;;;;;;;;;6326255;28;20050;-87
2022/04/09 10:30:39;;;;;;;6.05;1.92;;;;;;;;;;6312835;28;20044;-88
2022/04/09 10:33:53;;;;;;;2.50;2.30;;;;;;;;;;6323846;28;20073;-88
2022/04/09 10:37:03;;;;;;;2.33;2.13;;;;;;;;;;6321122;28;20040;-89
2022/04/09 10:40:14;;;;;;;3.22;2.83;;;;;;;;;;6317881;28;20036;-79
2022/04/09 10:43:42;;;;;;;2.92;2.17;;;;;;;;;;6316291;28;20137;-84
2022/04/09 10:47:14;;;;;;;3.47;2.22;;;;;;;;;;6318733;28;20479;-85
2022/04/09 10:53:43;;;;;;;2.30;2.10;;;;;;;;;;6320124;22;20052;-84
2022/04/09 10:56:49;;;;;;;2.72;1.70;;;;;;;;;;6299418;28;20055;-86
2022/04/09 10:59:58;;;;;;;1.40;1.30;;;;;;;;;;6297022;28;20056;-82
2022/04/09 11:03:05;;;;;;;2.28;1.67;;;;;;;;;;6297040;28;20044;-84
2022/04/09 11:07:13;;;;;;;1.95;1.33;;;;;;;;;;6194667;28;20465;-85
2022/04/09 11:10:17;;;;;;;5.97;1.60;;;;;;;;;;6293921;28;20276;-88
2022/04/09 11:13:31;;;;;;;3.90;1.50;;;;;;;;;;6298639;28;20077;-85
2022/04/09 11:16:35;;;;;;;1.88;1.58;;;;;;;;;;6296159;28;20402;-86
2022/04/09 11:19:39;;;;;;;1.77;1.67;;;;;;;;;;6296011;28;20127;-86
2022/04/09 11:22:43;;;;;;;1.30;1.20;;;;;;;;;;6296526;28;20070;-87
2022/04/09 11:31:05;;;;;;;1.75;1.50;;;;;;;;;;6219006;28;20421;-83
2022/04/09 11:34:10;;;;;;;3.35;1.60;;;;;;;;;;6224075;28;20496;-83
2022/04/09 11:37:13;;;;;;;1.85;1.52;;;;;;;;;;6223674;28;20066;-84
2022/04/09 11:40:34;;;;;;;2.30;1.63;;;;;;;;;;6220111;28;20054;-83
2022/04/09 11:48:59;;;;;;;2.78;1.70;;;;;;;;;;6297689;28;20052;-89
2022/04/09 11:52:05;;;;;;;1.67;1.40;;;;;;;;;;6295226;28;20479;-85
2022/04/09 11:55:11;;;;;;;1.88;1.52;;;;;;;;;;6282788;28;20510;-89
2022/04/09 11:58:15;;;;;;;3.83;1.60;;;;;;;;;;6301963;28;20052;-83
2022/04/09 12:01:18;;;;;;;1.70;1.60;;;;;;;;;;6296501;28;20479;-85
2022/04/09 12:04:33;;;;;;;2.20;1.55;;;;;;;;;;6296224;28;20048;-85
2022/04/09 12:07:52;;;;;;;2.50;1.80;;;;;;;;;;6293328;28;20087;-84
2022/04/09 12:10:56;;;;;;;1.38;1.27;;;;;;;;;;6287705;28;20434;-90
2022/04/09 12:14:08;;;;;;;1.50;1.40;;;;;;;;;;6271695;28;20053;-86
2022/04/09 12:17:37;;;;;;;1.98;1.70;;;;;;;;;;6272624;28;20375;-86
2022/04/09 12:20:41;;;;;;;5.32;1.80;;;;;;;;;;6271681;28;20150;-88
2022/04/09 12:23:47;;;;;;;4.05;2.00;;;;;;;;;;6271297;28;20403;-87
2022/04/09 12:26:55;;;;;;;2.40;2.05;;;;;;;;;;6271277;28;20045;-87
2022/04/09 12:29:58;;;;;;;5.15;2.00;;;;;;;;;;6271634;28;20051;-87
2022/04/09 12:33:07;;;;;;;3.22;2.20;;;;;;;;;;6258213;28;20405;-91
2022/04/09 12:36:11;;;;;;;3.53;2.17;;;;;;;;;;6277455;28;20047;-90
2022/04/09 12:39:26;;;;;;;2.88;2.35;;;;;;;;;;6272133;28;20044;-88
2022/04/09 12:42:30;;;;;;;3.95;2.30;;;;;;;;;;6277646;28;20045;-87
2022/04/09 12:45:35;;;;;;;5.85;1.70;;;;;;;;;;6276716;28;20052;-85
2022/04/09 12:48:40;;;;;;;2.70;2.03;;;;;;;;;;6272170;28;20033;-87
2022/04/09 12:51:43;;;;;;;3.47;2.05;;;;;;;;;;6269969;28;20040;-85
2022/04/09 12:54:48;;;;;;;5.40;2.33;;;;;;;;;;6270837;28;20045;-85
2022/04/09 12:57:51;;;;;;;3.55;1.98;;;;;;;;;;6271210;28;20052;-83
2022/04/09 13:00:57;;;;;;;3.05;1.80;;;;;;;;;;6272147;28;20076;-80
2022/04/09 13:04:01;;;;;;;4.63;2.10;;;;;;;;;;6268641;28;20381;-80
2022/04/09 13:07:04;;;;;;;3.63;2.03;;;;;;;;;;6270557;28;20471;-85
2022/04/09 13:10:10;;;;;;;2.85;1.90;;;;;;;;;;6271268;28;20128;-85
2022/04/09 13:13:13;;;;;;;3.17;2.08;;;;;;;;;;6269754;28;20463;-82
2022/04/09 13:16:16;;;;;;;3.05;2.20;;;;;;;;;;6270782;28;20055;-84
2022/04/09 13:19:20;;;;;;;3.47;2.47;;;;;;;;;;6270417;28;20065;-83
2022/04/09 13:22:23;;;;;;;4.07;2.40;;;;;;;;;;6268228;28;20052;-81
2022/04/09 13:25:27;;;;;;;4.45;2.85;;;;;;;;;;6270258;28;20435;-80
2022/04/09 13:28:30;;;;;;;5.72;2.58;;;;;;;;;;6269974;28;20080;-82
2022/04/09 13:31:34;;;;;;;4.03;2.67;;;;;;;;;;6270570;28;20045;-82
2022/04/09 13:34:37;;;;;;;4.43;2.50;;;;;;;;;;6270061;28;20041;-81
2022/04/09 13:37:40;;;;;;;3.50;2.47;;;;;;;;;;6269229;28;20477;-79
2022/04/09 13:40:46;;;;;;;3.63;2.42;;;;;;;;;;6270940;28;20067;-79
2022/04/09 13:43:50;;;;;;;25.63;13.15;;;;;;;;;;6279290;28;20056;-79
2022/04/09 13:46:53;;;;;;;3.53;2.63;;;;;;;;;;6303172;28;20051;-83
2022/04/09 13:49:59;;;;;;;5.93;3.20;;;;;;;;;;6328314;28;20045;-83
2022/04/09 13:53:04;;;;;;;4.13;2.97;;;;;;;;;;6315341;28;20047;-81
2022/04/09 13:56:09;;;;;;;4.00;3.17;;;;;;;;;;6282999;28;20543;-85
2022/04/09 13:59:12;;;;;;;5.55;4.25;;;;;;;;;;6300678;28;20407;-81
2022/04/09 14:02:16;;;;;;;4.65;3.55;;;;;;;;;;6299625;28;20501;-83
2022/04/09 14:05:21;;;;;;;6.03;4.43;;;;;;;;;;6299889;28;20376;-81
2022/04/09 14:12:14;;;;;;;5.65;3.78;;;;;;;;;;6296643;28;20036;-82
2022/04/09 14:15:17;;;;;;;6.20;3.72;;;;;;;;;;6296291;28;20052;-82
2022/04/09 14:18:20;;;;;;;5.07;3.70;;;;;;;;;;6297520;28;20049;-84
2022/04/09 14:21:26;;;;;;;6.10;3.65;;;;;;;;;;6297842;28;20060;-84
2022/04/09 14:24:29;;;;;;;10.73;5.18;;;;;;;;;;6296811;28;20052;-83
2022/04/09 14:27:34;;;;;;;;;;;;;;;;;;6296947;28;20047;-84
2022/04/09 14:30:42;;;;;;;5.32;3.80;;;;;;;;;;6297017;28;19927;-83
2022/04/09 14:33:46;;;;;;;5.75;3.95;;;;;;;;;;6296978;28;20549;-86
2022/04/09 14:36:49;;;;;;;5.22;3.63;;;;;;;;;;6277610;28;20051;-81
2022/04/09 14:39:52;;;;;;;8.82;4.40;;;;;;;;;;6297444;28;20047;-82
2022/04/09 14:42:56;;;;;;;5.57;4.05;;;;;;;;;;6299220;28;20040;-81
2022/04/09 14:46:06;;;;;;;5.00;3.92;;;;;;;;;;6298286;28;20049;-84
2022/04/09 14:49:11;;;;;;;6.03;4.13;;;;;;;;;;6281389;28;20055;-87
2022/04/09 14:52:14;;;;;;;6.55;4.28;;;;;;;;;;6298878;28;20044;-86
2022/04/09 14:55:17;;;;;;;9.70;4.65;;;;;;;;;;6298495;28;20502;-87
2022/04/09 14:58:23;;;;;;;5.90;4.35;;;;;;;;;;6297861;28;20045;-84
2022/04/09 15:01:28;;;;;;;6.95;4.45;;;;;;;;;;6281019;28;20520;-84
2022/04/09 15:04:31;;;;;;;6.28;4.20;;;;;;;;;;6299331;28;20048;-85
2022/04/09 15:07:35;;;;;;;6.43;3.92;;;;;;;;;;6297875;28;20546;-83
2022/04/09 15:10:38;;;;;;;6.72;3.88;;;;;;;;;;6298667;28;20423;-84
2022/04/09 15:13:41;;;;;;;5.45;3.60;;;;;;;;;;6298753;28;20036;-84
2022/04/09 15:16:46;;;;;;;5.70;3.80;;;;;;;;;;6297865;28;20048;-86
2022/04/09 15:19:49;;;;;;;5.80;4.10;;;;;;;;;;6298782;28;20512;-85
2022/04/09 15:22:52;;;;;;;4.78;3.50;;;;;;;;;;6264428;28;20127;-86
2022/04/09 15:25:55;;;;;;;5.20;3.42;;;;;;;;;;6279692;28;20044;-84
2022/04/09 15:28:59;;;;;;;4.63;3.10;;;;;;;;;;6280745;28;20055;-84
2022/04/09 15:32:04;;;;;;;6.20;3.30;;;;;;;;;;6280481;28;20049;-82
2022/04/09 15:35:08;;;;;;;6.50;3.20;;;;;;;;;;6297384;28;20419;-84
2022/04/09 15:38:11;;;;;;;6.28;2.90;;;;;;;;;;6279864;28;20049;-83
2022/04/09 15:41:15;;;;;;;4.88;2.95;;;;;;;;;;6298263;28;20052;-81
2022/04/09 15:44:18;;;;;;;3.65;2.72;;;;;;;;;;6297461;28;20063;-81
2022/04/09 15:47:24;;;;;;;6.13;2.80;;;;;;;;;;6297332;28;20058;-82
2022/04/09 15:50:26;;;;;;;6.05;2.95;;;;;;;;;;6297987;28;20044;-83
2022/04/09 15:53:30;;;;;;;5.80;3.22;;;;;;;;;;6297487;28;20055;-84
2022/04/09 15:56:35;;;;;;;5.15;3.30;;;;;;;;;;6278913;28;20040;-83
2022/04/09 15:59:39;;;;;;;4.03;2.63;;;;;;;;;;6297648;28;20044;-84
2022/04/09 16:02:43;;;;;;;4.57;2.67;;;;;;;;;;6297909;28;20056;-83
2022/04/09 16:05:47;;;;;;;7.57;2.83;;;;;;;;;;6278638;28;20060;-82
2022/04/09 16:08:53;;;;;;;6.25;2.97;;;;;;;;;;6297361;28;20055;-84
2022/04/09 16:11:57;;;;;;;5.90;2.75;;;;;;;;;;6278481;28;20450;-81
2022/04/09 16:15:03;;;;;;;5.15;2.65;;;;;;;;;;6295806;28;20090;-84
2022/04/09 16:18:08;;;;;;;5.40;2.95;;;;;;;;;;6297169;28;20045;-83
2022/04/09 16:21:11;;;;;;;5.88;2.78;;;;;;;;;;6279902;28;20052;-83
2022/04/09 16:24:15;;;;;;;5.18;2.67;;;;;;;;;;6296796;28;20044;-82
2022/04/09 16:27:21;;;;;;;5.70;2.70;;;;;;;;;;6278471;28;20052;-83
2022/04/09 16:30:25;;;;;;;4.70;3.10;;;;;;;;;;6297285;28;20055;-83
2022/04/09 16:33:30;;;;;;;3.85;2.85;;;;;;;;;;6296632;28;20055;-82
2022/04/09 16:36:34;;;;;;;6.43;2.90;;;;;;;;;;6277914;28;20086;-82
2022/04/09 16:39:37;;;;;;;6.85;2.97;;;;;;;;;;6296625;28;20048;-83
2022/04/09 16:42:40;;;;;;;4.85;3.22;;;;;;;;;;6278459;28;20048;-83
2022/04/09 16:45:43;;;;;;;5.88;3.15;;;;;;;;;;6294195;28;20044;-82
2022/04/09 16:48:48;;;;;;;5.60;3.45;;;;;;;;;;6294843;28;20040;-81
2022/04/09 16:51:51;;;;;;;4.68;3.30;;;;;;;;;;6294292;28;20048;-82
2022/04/09 16:54:54;;;;;;;9.02;3.67;;;;;;;;;;6293604;28;20044;-82
2022/04/09 16:57:59;;;;;;;5.13;3.45;;;;;;;;;;6293966;28;20334;-83
2022/04/09 17:01:03;;;;;;;6.07;3.93;;;;;;;;;;6294180;28;20460;-83
2022/04/09 17:04:08;;;;;;;8.35;4.45;;;;;;;;;;6293615;28;20036;-82
2022/04/09 17:07:12;;;;;;;6.95;4.20;;;;;;;;;;6294556;28;20053;-82
2022/04/09 17:10:16;;;;;;;8.32;4.65;;;;;;;;;;6280260;28;20115;-81
2022/04/09 17:13:19;;;;;;;10.38;5.30;;;;;;;;;;6297960;28;20076;-83
2022/04/09 17:16:23;;;;;;;11.80;5.93;;;;;;;;;;6305594;28;20040;-81
2022/04/09 17:19:28;;;;;;;12.13;5.73;;;;;;;;;;6294324;28;20075;-82
2022/04/09 17:22:35;;;;;;;9.27;5.47;;;;;;;;;;6292294;28;20076;-81
2022/04/09 17:25:39;;;;;;;10.48;5.32;;;;;;;;;;6293245;28;20044;-81
2022/04/09 17:28:48;;;;;;;9.18;5.00;;;;;;;;;;6294326;28;20055;-82
2022/04/09 17:31:52;;;;;;;7.22;5.22;;;;;;;;;;6275486;28;20385;-83
2022/04/09 17:34:56;;;;;;;8.65;5.05;;;;;;;;;;6293360;28;20166;-83
2022/04/09 17:38:00;;;;;;;8.63;5.25;;;;;;;;;;6293747;28;20044;-83
2022/04/09 17:41:03;;;;;;;8.85;5.38;;;;;;;;;;6293599;28;20044;-83
2022/04/09 17:44:07;;;;;;;8.02;5.50;;;;;;;;;;6292856;28;20060;-82
2022/04/09 17:47:10;;;;;;;9.80;5.80;;;;;;;;;;6275417;28;20036;-83
2022/04/09 17:50:15;;;;;;;9.27;6.05;;;;;;;;;;6293720;28;20113;-82
2022/04/09 17:53:18;;;;;;;9.23;5.78;;;;;;;;;;6292346;28;20048;-81
2022/04/09 17:56:21;;;;;;;10.18;5.45;;;;;;;;;;6292886;28;20045;-81
2022/04/09 17:59:24;;;;;;;13.63;6.15;;;;;;;;;;6294254;28;20044;-82
2022/04/09 18:02:30;;;;;;;10.10;6.05;;;;;;;;;;6293008;28;20064;-81
2022/04/09 18:05:35;;;;;;;12.68;6.78;;;;;;;;;;6292838;28;20109;-81
2022/04/09 18:08:38;;;;;;;9.45;5.75;;;;;;;;;;6275596;28;20045;-81
2022/04/09 18:11:41;;;;;;;10.75;6.03;;;;;;;;;;6292467;28;20043;-82
2022/04/09 18:14:45;;;;;;;9.10;5.05;;;;;;;;;;6292605;28;20344;-80
2022/04/09 18:17:48;;;;;;;8.65;5.47;;;;;;;;;;6275199;28;20049;-81
2022/04/09 18:20:52;;;;;;;11.82;6.22;;;;;;;;;;6273887;28;20041;-80
2022/04/09 18:23:56;;;;;;;11.32;5.82;;;;;;;;;;6292389;28;20055;-80
2022/04/09 18:26:59;;;;;;;9.18;6.07;;;;;;;;;;6291435;28;20098;-79
2022/04/09 18:30:03;;;;;;;9.52;5.57;;;;;;;;;;6272720;28;20049;-83
2022/04/09 18:33:07;;;;;;;8.55;5.35;;;;;;;;;;6292378;28;20483;-79
2022/04/09 18:36:13;;;;;;;9.95;5.63;;;;;;;;;;6279554;28;20143;-81
2022/04/09 18:39:16;;;;;;;9.40;5.65;;;;;;;;;;6297661;28;20395;-80
2022/04/09 18:42:19;;;;;;;10.32;5.80;;;;;;;;;;6296886;28;20407;-81
2022/04/09 18:45:23;;;;;;;11.05;6.10;;;;;;;;;;6296813;28;20110;-81
2022/04/09 18:48:26;;;;;;;8.95;5.80;;;;;;;;;;6279101;28;20540;-83
2022/04/09 18:51:33;;;;;;;12.30;6.07;;;;;;;;;;6297011;28;20644;-81